createdAt,value
2023-02-24T00:00:36.232Z,30.63
2023-02-24T00:03:09.024Z,28.50
2023-02-24T00:05:44.866Z,28.00
2023-02-24T00:08:15.720Z,27.43
2023-02-24T00:10:47.895Z,27.23
2023-02-24T00:13:20.703Z,26.67
2023-02-24T00:16:02.977Z,21.97
2023-02-24T00:18:35.070Z,32.13
2023-02-24T00:21:10.773Z,24.43
2023-02-24T00:23:42.961Z,26.33
2023-02-24T00:26:15.443Z,23.33
2023-02-24T00:28:46.692Z,32.63
2023-02-24T00:31:20.175Z,29.40
2023-02-24T00:33:52.691Z,25.77
2023-02-24T00:36:25.237Z,27.80
2023-02-24T00:38:57.774Z,29.17
2023-02-24T00:41:30.303Z,30.80
2023-02-24T00:44:04.106Z,30.60
2023-02-24T00:46:37.373Z,27.83
2023-02-24T00:49:10.654Z,28.00
2023-02-24T00:51:43.144Z,26.30
2023-02-24T00:54:15.171Z,29.77
2023-02-24T00:56:47.360Z,33.20
2023-02-24T00:59:22.497Z,27.47
2023-02-24T01:01:54.991Z,29.70
2023-02-24T01:04:26.012Z,28.47
2023-02-24T01:06:59.323Z,28.07
2023-02-24T01:09:32.397Z,28.70
2023-02-24T01:12:20.489Z,31.30
2023-02-24T01:14:53.742Z,28.87
2023-02-24T01:17:26.278Z,28.90
2023-02-24T01:19:58.744Z,27.03
2023-02-24T01:22:29.833Z,28.17
2023-02-24T01:25:00.801Z,30.60
2023-02-24T01:27:32.312Z,27.70
2023-02-24T01:30:05.062Z,30.93
2023-02-24T01:32:36.182Z,28.87
2023-02-24T01:35:08.622Z,31.63
2023-02-24T01:37:40.280Z,32.00
2023-02-24T01:40:19.166Z,24.50
2023-02-24T01:42:50.359Z,29.13
2023-02-24T01:45:28.869Z,27.57
2023-02-24T01:48:02.952Z,26.20
2023-02-24T01:50:36.532Z,22.20
2023-02-24T01:53:09.628Z,28.17
2023-02-24T01:55:46.345Z,33.17
2023-02-24T01:58:21.829Z,27.53
2023-02-24T02:00:52.638Z,32.47
2023-02-24T02:03:27.536Z,22.00
2023-02-24T02:06:02.666Z,28.30
2023-02-24T02:08:36.076Z,26.83
2023-02-24T02:11:10.378Z,34.40
2023-02-24T02:13:44.106Z,33.20
2023-02-24T02:16:35.150Z,32.00
2023-02-24T02:19:15.658Z,36.67
2023-02-24T02:22:07.207Z,39.70
2023-02-24T02:24:51.079Z,40.20
2023-02-24T02:27:34.991Z,32.23
2023-02-24T02:30:36.299Z,32.80
2023-02-24T02:33:50.396Z,36.67
2023-02-24T02:36:24.376Z,37.80
2023-02-24T02:38:59.542Z,37.50
2023-02-24T02:41:32.507Z,44.50
2023-02-24T02:44:08.997Z,43.57
2023-02-24T02:46:43.313Z,37.03
2023-02-24T02:49:19.339Z,39.30
2023-02-24T02:51:53.929Z,33.57
2023-02-24T02:54:29.136Z,38.07
2023-02-24T02:57:04.060Z,41.83
2023-02-24T02:59:38.088Z,37.70
2023-02-24T03:02:14.194Z,41.97
2023-02-24T03:04:48.459Z,42.03
2023-02-24T03:07:21.705Z,37.33
2023-02-24T03:09:56.599Z,36.53
2023-02-24T03:12:30.760Z,41.27
2023-02-24T03:15:05.561Z,30.03
2023-02-24T03:17:41.577Z,40.03
2023-02-24T03:20:17.734Z,38.80
2023-02-24T03:22:52.174Z,36.80
2023-02-24T03:25:28.830Z,35.10
2023-02-24T03:28:04.249Z,37.53
2023-02-24T03:30:38.650Z,40.60
2023-02-24T03:33:12.249Z,46.43
2023-02-24T03:35:44.503Z,43.83
2023-02-24T03:38:15.870Z,46.93
2023-02-24T03:40:48.309Z,41.40
2023-02-24T03:43:22.279Z,47.37
2023-02-24T03:45:53.668Z,46.50
2023-02-24T03:48:26.261Z,42.70
2023-02-24T03:50:59.229Z,41.90
2023-02-24T03:53:36.650Z,36.20
2023-02-24T03:56:14.577Z,40.40
2023-02-24T03:58:52.187Z,36.17
2023-02-24T04:01:26.221Z,38.43
2023-02-24T04:04:01.244Z,45.40
2023-02-24T04:06:38.385Z,36.57
2023-02-24T04:09:14.648Z,37.27
2023-02-24T04:11:49.929Z,47.37
2023-02-24T04:14:25.381Z,43.13
2023-02-24T04:17:01.534Z,37.90
2023-02-24T04:19:37.595Z,37.70
2023-02-24T04:22:10.420Z,45.55
2023-02-24T04:24:43.206Z,38.50
2023-02-24T04:27:21.238Z,42.93
2023-02-24T04:29:54.728Z,40.37
2023-02-24T04:32:28.047Z,39.93
2023-02-24T04:35:07.511Z,39.93
2023-02-24T04:37:39.841Z,36.30
2023-02-24T04:40:13.298Z,40.93
2023-02-24T04:42:47.684Z,44.10
2023-02-24T04:45:22.882Z,39.30
2023-02-24T04:47:58.781Z,41.77
2023-02-24T04:50:32.492Z,43.83
2023-02-24T04:53:07.400Z,40.67
2023-02-24T04:55:41.036Z,44.53
2023-02-24T04:58:14.308Z,38.80
2023-02-24T05:00:45.120Z,41.83
2023-02-24T05:03:16.967Z,48.80
2023-02-24T05:05:53.354Z,40.27
2023-02-24T05:08:24.456Z,42.07
2023-02-24T05:10:56.846Z,47.57
2023-02-24T05:13:31.643Z,42.57
2023-02-24T05:16:07.658Z,40.03
2023-02-24T05:18:39.644Z,37.17
2023-02-24T05:21:30.044Z,34.10
2023-02-24T05:24:03.073Z,37.87
2023-02-24T05:26:35.955Z,38.53
2023-02-24T05:29:08.389Z,36.77
2023-02-24T05:31:39.883Z,38.57
2023-02-24T05:34:15.388Z,40.40
2023-02-24T05:36:46.782Z,40.17
2023-02-24T05:39:19.961Z,39.67
2023-02-24T05:41:53.209Z,39.73
2023-02-24T05:44:26.262Z,46.03
2023-02-24T05:46:59.441Z,50.57
2023-02-24T05:49:33.852Z,43.03
2023-02-24T05:52:09.059Z,39.73
2023-02-24T05:57:21.406Z,43.63
2023-02-24T05:59:53.331Z,44.13
2023-02-24T06:02:27.487Z,40.27
2023-02-24T06:05:00.389Z,38.50
2023-02-24T06:10:11.125Z,42.63
2023-02-24T06:12:42.026Z,42.70
2023-02-24T06:15:14.045Z,43.07
2023-02-24T06:17:45.278Z,37.53
2023-02-24T06:20:17.405Z,43.80
2023-02-24T06:22:48.816Z,41.37
2023-02-24T06:25:20.313Z,46.93
2023-02-24T06:27:55.699Z,41.90
2023-02-24T06:30:29.480Z,40.13
2023-02-24T06:33:00.608Z,39.03
2023-02-24T06:35:33.492Z,37.00
2023-02-24T06:38:04.603Z,36.90
2023-02-24T06:40:35.439Z,45.13
2023-02-24T06:43:06.657Z,40.40
2023-02-24T06:45:38.595Z,41.80
2023-02-24T06:48:09.594Z,31.30
2023-02-24T06:50:42.197Z,36.63
2023-02-24T06:53:14.850Z,36.53
2023-02-24T06:55:48.969Z,35.87
2023-02-24T06:58:23.531Z,35.13
2023-02-24T07:00:57.830Z,37.67
2023-02-24T07:03:33.421Z,38.77
2023-02-24T07:06:13.668Z,44.20
2023-02-24T07:08:44.942Z,40.07
2023-02-24T07:11:17.800Z,37.97
2023-02-24T07:13:49.879Z,38.27
2023-02-24T07:16:24.621Z,35.07
2023-02-24T07:18:57.960Z,35.03
2023-02-24T07:21:31.268Z,39.03
2023-02-24T07:24:03.753Z,37.17
2023-02-24T07:26:37.866Z,31.83
2023-02-24T07:29:09.024Z,32.90
2023-02-24T07:31:42.689Z,41.20
2023-02-24T07:34:15.226Z,42.37
2023-02-24T07:36:50.229Z,35.87
2023-02-24T07:39:23.210Z,41.17
2023-02-24T07:41:55.592Z,47.10
2023-02-24T07:44:26.680Z,51.07
2023-02-24T07:46:59.485Z,49.73
2023-02-24T07:49:30.815Z,58.50
2023-02-24T07:52:02.400Z,53.23
2023-02-24T07:54:34.998Z,54.13
2023-02-24T07:57:08.671Z,41.67
2023-02-24T07:59:39.869Z,40.10
2023-02-24T08:02:14.100Z,35.03
2023-02-24T08:05:03.811Z,40.50
2023-02-24T08:07:35.205Z,40.13
2023-02-24T08:10:17.975Z,32.33
2023-02-24T08:12:49.248Z,34.57
2023-02-24T08:15:22.468Z,29.70
2023-02-24T08:17:58.380Z,36.33
2023-02-24T08:20:32.398Z,29.27
2023-02-24T08:23:05.058Z,31.27
2023-02-24T08:25:40.815Z,29.73
2023-02-24T08:28:12.428Z,30.17
2023-02-24T08:30:46.373Z,32.77
2023-02-24T08:33:22.341Z,32.67
2023-02-24T08:35:58.594Z,36.40
2023-02-24T08:38:33.494Z,31.40
2023-02-24T08:41:05.162Z,34.43
2023-02-24T08:43:40.759Z,37.33
2023-02-24T08:46:21.376Z,34.33
2023-02-24T08:48:55.688Z,26.93
2023-02-24T08:51:29.670Z,31.37
2023-02-24T08:54:02.101Z,37.73
2023-02-24T08:56:35.424Z,34.27
2023-02-24T08:59:07.777Z,28.67
2023-02-24T09:01:44.108Z,29.10
2023-02-24T09:04:34.849Z,32.77
2023-02-24T09:07:11.735Z,26.83
2023-02-24T09:09:41.868Z,27.17
2023-02-24T09:12:17.280Z,30.53
2023-02-24T09:14:49.586Z,30.33
2023-02-24T09:17:23.149Z,25.87
2023-02-24T09:20:15.923Z,28.03
2023-02-24T09:22:59.232Z,24.70
2023-02-24T09:25:45.103Z,28.07
2023-02-24T09:28:18.359Z,28.67
2023-02-24T09:30:54.807Z,27.83
2023-02-24T09:36:10.948Z,28.77
2023-02-24T09:39:01.351Z,30.77
2023-02-24T09:41:38.365Z,27.07
2023-02-24T09:44:29.990Z,27.47
2023-02-24T09:47:06.514Z,28.10
2023-02-24T09:49:44.523Z,24.63
2023-02-24T09:52:18.499Z,30.70
2023-02-24T09:54:58.156Z,25.33
2023-02-24T09:57:30.707Z,25.30
2023-02-24T10:00:06.962Z,21.77
2023-02-24T10:02:44.880Z,24.57
2023-02-24T10:05:24.977Z,22.33
2023-02-24T10:07:58.176Z,27.03
2023-02-24T10:10:33.553Z,26.00
2023-02-24T10:13:14.900Z,25.37
2023-02-24T10:16:06.141Z,34.15
2023-02-24T10:18:35.863Z,23.67
2023-02-24T10:21:16.606Z,26.80
2023-02-24T10:23:59.030Z,25.10
2023-02-24T10:26:35.279Z,24.10
2023-02-24T10:29:12.597Z,27.00
2023-02-24T10:31:48.158Z,23.67
2023-02-24T10:34:24.028Z,23.00
2023-02-24T10:36:55.947Z,22.60
2023-02-24T10:39:29.821Z,20.90
2023-02-24T10:42:16.516Z,25.70
2023-02-24T10:45:03.233Z,23.07
2023-02-24T10:47:31.714Z,28.83
2023-02-24T10:50:06.596Z,29.67
2023-02-24T10:52:53.197Z,26.07
2023-02-24T10:55:31.543Z,21.90
2023-02-24T11:01:13.619Z,21.27
2023-02-24T11:06:33.519Z,27.20
2023-02-24T11:09:19.738Z,24.83
2023-02-24T11:12:09.491Z,20.17
2023-02-24T11:15:00.525Z,27.03
2023-02-24T11:17:31.368Z,25.33
2023-02-24T11:20:23.989Z,21.20
2023-02-24T11:22:57.729Z,20.20
2023-02-24T11:25:32.824Z,21.23
2023-02-24T11:28:06.072Z,21.37
2023-02-24T11:30:42.909Z,19.90
2023-02-24T11:33:27.116Z,16.27
2023-02-24T11:36:05.329Z,19.90
2023-02-24T11:38:42.866Z,20.40
2023-02-24T11:41:19.295Z,21.30
2023-02-24T11:43:53.648Z,19.63
2023-02-24T11:49:10.159Z,22.40
2023-02-24T11:51:41.481Z,16.17
2023-02-24T11:54:15.383Z,14.00
2023-02-24T11:56:48.552Z,19.63
2023-02-24T12:02:05.837Z,27.60
2023-02-24T12:04:39.824Z,17.77
2023-02-24T12:07:13.914Z,20.20
2023-02-24T12:09:47.880Z,23.43
2023-02-24T12:12:22.228Z,19.70
2023-02-24T12:14:55.732Z,24.00
2023-02-24T12:17:30.213Z,18.97
2023-02-24T12:20:06.160Z,14.57
2023-02-24T12:22:57.563Z,19.63
2023-02-24T12:25:31.805Z,19.03
2023-02-24T12:28:11.555Z,14.13
2023-02-24T12:30:49.568Z,16.33
2023-02-24T12:33:34.332Z,16.63
2023-02-24T12:36:09.631Z,15.40
2023-02-24T12:38:53.702Z,19.23
2023-02-24T12:41:37.487Z,15.53
2023-02-24T12:44:16.419Z,17.60
2023-02-24T12:46:50.294Z,17.73
2023-02-24T12:49:31.524Z,18.60
2023-02-24T12:52:10.315Z,16.10
2023-02-24T12:54:44.284Z,18.30
2023-02-24T12:57:18.467Z,18.57
2023-02-24T12:59:49.708Z,12.57
2023-02-24T13:02:25.591Z,15.77
2023-02-24T13:05:01.011Z,17.60
2023-02-24T13:07:53.181Z,15.30
2023-02-24T13:10:32.398Z,13.20
2023-02-24T13:13:10.090Z,12.67
2023-02-24T13:15:52.205Z,17.33
2023-02-24T13:18:32.222Z,15.07
2023-02-24T13:21:09.693Z,18.87
2023-02-24T13:23:43.266Z,27.55
2023-02-24T13:26:15.592Z,18.23
2023-02-24T13:28:46.265Z,17.57
2023-02-24T13:31:17.024Z,18.47
2023-02-24T13:33:48.706Z,16.67
2023-02-24T13:36:22.467Z,21.57
2023-02-24T13:38:55.822Z,17.80
2023-02-24T13:41:40.991Z,15.57
2023-02-24T13:44:27.407Z,21.97
2023-02-24T13:50:20.227Z,23.23
2023-02-24T13:53:13.517Z,16.13
2023-02-24T13:55:52.936Z,22.57
2023-02-24T13:58:41.591Z,14.67
2023-02-24T14:01:14.970Z,20.97
2023-02-24T14:03:48.326Z,21.87
2023-02-24T14:06:23.486Z,18.63
2023-02-24T14:08:57.595Z,17.83
2023-02-24T14:11:31.239Z,14.93
2023-02-24T14:14:02.198Z,13.27
2023-02-24T14:16:38.503Z,11.60
2023-02-24T14:19:14.287Z,20.82
2023-02-24T14:21:52.665Z,18.73
2023-02-24T14:24:25.207Z,23.23
2023-02-24T14:26:57.821Z,15.83
2023-02-24T14:29:32.308Z,15.90
2023-02-24T14:32:03.449Z,14.00
2023-02-24T14:34:34.848Z,18.50
2023-02-24T14:37:08.579Z,16.87
2023-02-24T14:39:39.287Z,20.73
2023-02-24T14:42:17.130Z,14.93
2023-02-24T14:44:50.034Z,13.27
2023-02-24T14:47:22.582Z,8.97
2023-02-24T14:49:59.864Z,16.23
2023-02-24T14:52:36.025Z,16.67
2023-02-24T14:55:10.390Z,15.97
2023-02-24T14:57:45.305Z,16.30
2023-02-24T15:00:23.344Z,13.70
2023-02-24T15:02:58.733Z,19.37
2023-02-24T15:05:31.902Z,11.43
2023-02-24T15:08:04.800Z,21.67
2023-02-24T15:10:35.502Z,17.27
2023-02-24T15:13:11.673Z,14.00
2023-02-24T15:15:42.934Z,15.50
2023-02-24T15:18:18.998Z,11.67
2023-02-24T15:20:51.133Z,11.37
2023-02-24T15:23:30.874Z,14.97
2023-02-24T15:26:02.857Z,12.93
2023-02-24T15:28:36.122Z,13.50
2023-02-24T15:31:11.629Z,13.27
2023-02-24T15:33:45.539Z,10.47
2023-02-24T15:36:19.876Z,14.67
2023-02-24T15:38:54.073Z,16.47
2023-02-24T15:41:26.122Z,13.70
2023-02-24T15:43:57.297Z,14.43
2023-02-24T15:46:31.636Z,10.07
2023-02-24T15:49:03.576Z,18.27
2023-02-24T15:51:41.074Z,13.93
2023-02-24T15:54:14.938Z,18.40
2023-02-24T15:56:48.127Z,15.23
2023-02-24T15:59:22.023Z,15.37
2023-02-24T16:01:52.746Z,19.53
2023-02-24T16:04:24.658Z,18.70
2023-02-24T16:06:58.728Z,16.00
2023-02-24T16:09:33.517Z,17.33
2023-02-24T16:12:06.977Z,24.23
2023-02-24T16:14:38.018Z,16.50
2023-02-24T16:17:11.782Z,16.87
2023-02-24T16:19:42.473Z,21.73
2023-02-24T16:22:13.670Z,12.87
2023-02-24T16:24:44.593Z,17.80
2023-02-24T16:27:18.927Z,16.17
2023-02-24T16:29:51.386Z,19.67
2023-02-24T16:32:23.847Z,15.10
2023-02-24T16:34:55.373Z,16.70
2023-02-24T16:37:28.567Z,16.10
2023-02-24T16:40:01.374Z,32.13
2023-02-24T16:42:32.269Z,18.83
2023-02-24T16:45:03.092Z,17.97
2023-02-24T16:50:20.742Z,12.63
2023-02-24T16:52:51.887Z,14.27
2023-02-24T16:55:24.118Z,20.97
2023-02-24T16:58:14.133Z,15.40
2023-02-24T17:00:47.355Z,17.63
2023-02-24T17:03:21.973Z,15.70
2023-02-24T17:05:53.941Z,11.03
2023-02-24T17:08:25.177Z,17.40
2023-02-24T17:10:57.334Z,19.30
2023-02-24T17:13:28.259Z,13.67
2023-02-24T17:15:59.313Z,18.02
2023-02-24T17:18:30.371Z,14.43
2023-02-24T17:21:01.236Z,15.53
2023-02-24T17:23:32.422Z,15.37
2023-02-24T17:26:04.033Z,18.33
2023-02-24T17:28:35.224Z,19.23
2023-02-24T17:31:07.591Z,13.90
2023-02-24T17:33:38.640Z,16.37
2023-02-24T17:36:10.376Z,14.23
2023-02-24T17:38:41.514Z,13.57
2023-02-24T17:43:53.056Z,10.17
2023-02-24T17:46:24.342Z,14.57
2023-02-24T17:48:55.710Z,14.30
2023-02-24T17:51:27.787Z,10.33
2023-02-24T17:53:58.878Z,12.53
2023-02-24T17:56:30.080Z,11.43
2023-02-24T17:59:01.146Z,19.07
2023-02-24T18:01:32.516Z,12.23
2023-02-24T18:04:03.575Z,12.03
2023-02-24T18:06:34.739Z,11.93
2023-02-24T18:09:05.987Z,12.73
2023-02-24T18:11:37.215Z,12.73
2023-02-24T18:14:08.127Z,12.53
2023-02-24T18:16:39.559Z,13.83
2023-02-24T18:19:10.855Z,11.57
2023-02-24T18:21:41.722Z,12.83
2023-02-24T18:24:12.930Z,11.47
2023-02-24T18:26:44.157Z,11.13
2023-02-24T18:29:14.917Z,15.63
2023-02-24T18:31:46.125Z,7.97
2023-02-24T18:34:17.123Z,11.53
2023-02-24T18:36:48.041Z,15.37
2023-02-24T18:39:19.096Z,13.00
2023-02-24T18:41:50.135Z,10.23
2023-02-24T18:44:31.458Z,14.63
2023-02-24T18:47:12.885Z,11.53
2023-02-24T18:49:44.120Z,11.83
2023-02-24T18:52:15.052Z,9.00
2023-02-24T18:54:46.872Z,9.67
2023-02-24T18:57:19.292Z,16.00
2023-02-24T18:59:53.783Z,8.37
2023-02-24T19:02:26.465Z,10.67
2023-02-24T19:04:58.353Z,8.83
2023-02-24T19:07:30.144Z,8.67
2023-02-24T19:12:41.016Z,13.90
2023-02-24T19:15:13.336Z,10.00
2023-02-24T19:17:45.428Z,8.73
2023-02-24T19:20:17.720Z,11.23
2023-02-24T19:22:51.518Z,7.73
2023-02-24T19:25:22.642Z,11.53
2023-02-24T19:27:55.479Z,10.83
2023-02-24T19:30:27.441Z,10.87
2023-02-24T19:32:59.222Z,9.63
2023-02-24T19:35:31.271Z,8.83
2023-02-24T19:38:02.260Z,11.30
2023-02-24T19:40:33.775Z,14.07
2023-02-24T19:43:04.839Z,11.00
2023-02-24T19:45:36.926Z,12.93
2023-02-24T19:48:08.277Z,11.33
2023-02-24T19:50:41.528Z,14.67
2023-02-24T19:53:15.252Z,9.50
2023-02-24T19:55:51.619Z,11.20
2023-02-24T19:58:22.636Z,7.60
2023-02-24T20:00:53.802Z,9.07
2023-02-24T20:06:03.134Z,13.47
2023-02-24T20:08:35.598Z,12.07
2023-02-24T20:11:08.129Z,12.03
2023-02-24T20:13:39.154Z,13.70
2023-02-24T20:18:50.585Z,9.80
2023-02-24T20:21:21.471Z,10.80
2023-02-24T20:23:52.350Z,13.27
2023-02-24T20:26:23.677Z,14.87
2023-02-24T20:28:55.370Z,11.67
2023-02-24T20:31:26.731Z,14.63
2023-02-24T20:33:58.845Z,17.00
2023-02-24T20:36:31.466Z,12.00
2023-02-24T20:39:02.519Z,10.77
2023-02-24T20:41:33.783Z,17.10
2023-02-24T20:44:04.928Z,9.90
2023-02-24T20:46:36.036Z,11.63
2023-02-24T20:49:09.644Z,14.40
2023-02-24T20:51:40.884Z,12.30
2023-02-24T20:54:13.133Z,14.20
2023-02-24T20:56:45.764Z,14.60
2023-02-24T20:59:18.477Z,14.87
2023-02-24T21:04:28.250Z,16.03
2023-02-24T21:06:59.121Z,9.80
2023-02-24T21:09:30.401Z,15.47
2023-02-24T21:12:01.404Z,10.37
2023-02-24T21:14:32.423Z,9.17
2023-02-24T21:17:03.686Z,11.83
2023-02-24T21:19:34.511Z,9.07
2023-02-24T21:22:05.390Z,7.33
2023-02-24T21:24:36.395Z,10.60
2023-02-24T21:27:07.449Z,15.60
2023-02-24T21:29:39.235Z,9.43
2023-02-24T21:32:10.396Z,9.20
2023-02-24T21:34:41.481Z,11.30
2023-02-24T21:37:12.499Z,10.83
2023-02-24T21:39:43.402Z,10.97
2023-02-24T21:42:14.624Z,8.13
2023-02-24T21:44:45.619Z,10.83
2023-02-24T21:47:16.613Z,9.20
2023-02-24T21:49:47.598Z,10.73
2023-02-24T21:52:20.020Z,10.30
2023-02-24T21:54:51.245Z,7.43
2023-02-24T21:57:23.000Z,11.43
2023-02-24T21:59:54.026Z,7.83
2023-02-24T22:02:45.938Z,10.03
2023-02-24T22:05:20.440Z,10.07
2023-02-24T22:07:52.166Z,8.77
2023-02-24T22:10:26.286Z,11.43
2023-02-24T22:13:00.991Z,11.03
2023-02-24T22:15:31.916Z,7.63
2023-02-24T22:18:03.072Z,6.70
2023-02-24T22:20:34.178Z,10.60
2023-02-24T22:23:05.008Z,11.83
2023-02-24T22:25:37.542Z,7.20
2023-02-24T22:28:08.873Z,11.13
2023-02-24T22:30:39.872Z,7.43
2023-02-24T22:33:10.944Z,6.73
2023-02-24T22:35:41.879Z,9.67
2023-02-24T22:38:13.014Z,7.70
2023-02-24T22:40:44.519Z,8.00
2023-02-24T22:43:15.552Z,8.20
2023-02-24T22:45:46.614Z,12.03
2023-02-24T22:48:17.801Z,8.10
2023-02-24T22:50:48.882Z,10.03
2023-02-24T22:53:19.722Z,6.47
2023-02-24T22:55:51.115Z,10.63
2023-02-24T22:58:23.940Z,6.33
2023-02-24T23:00:56.193Z,6.43
2023-02-24T23:03:30.761Z,6.83
2023-02-24T23:06:03.433Z,8.33
2023-02-24T23:08:37.503Z,6.70
2023-02-24T23:11:12.353Z,9.30
2023-02-24T23:13:44.884Z,7.83
2023-02-24T23:16:18.750Z,9.73
2023-02-24T23:18:51.071Z,9.40
2023-02-24T23:21:23.958Z,7.73
2023-02-24T23:23:57.034Z,9.73
2023-02-24T23:26:32.158Z,9.23
2023-02-24T23:29:03.172Z,11.00
2023-02-24T23:31:34.078Z,8.30
2023-02-24T23:34:07.310Z,6.97
2023-02-24T23:36:38.980Z,12.10
2023-02-24T23:39:11.064Z,6.13
2023-02-24T23:41:42.575Z,6.30
2023-02-24T23:44:13.452Z,5.50
2023-02-24T23:46:44.690Z,7.00
2023-02-24T23:49:16.059Z,6.50
2023-02-24T23:51:48.770Z,6.90
2023-02-24T23:54:20.588Z,4.43
2023-02-24T23:56:51.589Z,9.93
2023-02-24T23:59:22.509Z,3.67
